sensor_id;sensor_type;location;lat;lon;timestamp;P1;durP1;ratioP1;P2;durP2;ratioP2
75506;SDS011;64086;43.220;27.878;2023-06-14T00:02:12;5.55;;;3.83;;
75506;SDS011;64086;43.220;27.878;2023-06-14T00:04:37;4.72;;;3.90;;
75506;SDS011;64086;43.220;27.878;2023-06-14T00:07:04;7.05;;;3.90;;
75506;SDS011;64086;43.220;27.878;2023-06-14T00:09:33;6.35;;;3.72;;
75506;SDS011;64086;43.220;27.878;2023-06-14T00:11:58;6.00;;;3.80;;
75506;SDS011;64086;43.220;27.878;2023-06-14T00:14:24;4.82;;;3.50;;
75506;SDS011;64086;43.220;27.878;2023-06-14T00:16:49;3.83;;;3.33;;
75506;SDS011;64086;43.220;27.878;2023-06-14T00:19:17;4.00;;;3.47;;
75506;SDS011;64086;43.220;27.878;2023-06-14T00:21:43;4.32;;;3.42;;
75506;SDS011;64086;43.220;27.878;2023-06-14T00:24:08;4.80;;;3.45;;
75506;SDS011;64086;43.220;27.878;2023-06-14T00:26:34;4.38;;;3.38;;
75506;SDS011;64086;43.220;27.878;2023-06-14T00:28:59;4.90;;;3.28;;
75506;SDS011;64086;43.220;27.878;2023-06-14T00:31:25;4.53;;;3.35;;
75506;SDS011;64086;43.220;27.878;2023-06-14T00:33:50;5.30;;;3.80;;
75506;SDS011;64086;43.220;27.878;2023-06-14T00:36:15;4.45;;;3.35;;
75506;SDS011;64086;43.220;27.878;2023-06-14T00:38:41;4.10;;;3.45;;
75506;SDS011;64086;43.220;27.878;2023-06-14T00:41:06;4.60;;;3.60;;
75506;SDS011;64086;43.220;27.878;2023-06-14T00:43:32;3.95;;;3.40;;
75506;SDS011;64086;43.220;27.878;2023-06-14T00:45:59;4.90;;;3.38;;
75506;SDS011;64086;43.220;27.878;2023-06-14T00:48:25;3.97;;;3.50;;
75506;SDS011;64086;43.220;27.878;2023-06-14T00:50:50;3.80;;;3.40;;
75506;SDS011;64086;43.220;27.878;2023-06-14T00:53:18;3.78;;;3.47;;
75506;SDS011;64086;43.220;27.878;2023-06-14T00:55:45;5.47;;;3.80;;
75506;SDS011;64086;43.220;27.878;2023-06-14T00:58:11;4.93;;;3.65;;
75506;SDS011;64086;43.220;27.878;2023-06-14T01:00:37;4.50;;;3.90;;
75506;SDS011;64086;43.220;27.878;2023-06-14T01:03:03;4.25;;;3.85;;
75506;SDS011;64086;43.220;27.878;2023-06-14T01:05:28;4.22;;;3.80;;
75506;SDS011;64086;43.220;27.878;2023-06-14T01:08:13;4.93;;;3.75;;
75506;SDS011;64086;43.220;27.878;2023-06-14T01:10:56;4.30;;;3.60;;
75506;SDS011;64086;43.220;27.878;2023-06-14T01:13:47;4.25;;;3.60;;
75506;SDS011;64086;43.220;27.878;2023-06-14T01:16:14;5.03;;;3.60;;
75506;SDS011;64086;43.220;27.878;2023-06-14T01:18:40;5.03;;;3.80;;
75506;SDS011;64086;43.220;27.878;2023-06-14T01:21:15;4.88;;;3.85;;
75506;SDS011;64086;43.220;27.878;2023-06-14T01:23:45;6.28;;;4.05;;
75506;SDS011;64086;43.220;27.878;2023-06-14T01:26:13;5.22;;;3.63;;
75506;SDS011;64086;43.220;27.878;2023-06-14T01:28:41;5.10;;;3.90;;
75506;SDS011;64086;43.220;27.878;2023-06-14T01:31:06;4.25;;;3.85;;
75506;SDS011;64086;43.220;27.878;2023-06-14T01:33:33;6.22;;;4.50;;
75506;SDS011;64086;43.220;27.878;2023-06-14T01:35:58;5.05;;;4.15;;
75506;SDS011;64086;43.220;27.878;2023-06-14T01:38:25;4.72;;;3.92;;
75506;SDS011;64086;43.220;27.878;2023-06-14T01:40:52;5.10;;;4.25;;
75506;SDS011;64086;43.220;27.878;2023-06-14T01:43:18;5.95;;;4.40;;
75506;SDS011;64086;43.220;27.878;2023-06-14T01:45:44;4.72;;;4.13;;
75506;SDS011;64086;43.220;27.878;2023-06-14T01:48:11;7.75;;;4.40;;
75506;SDS011;64086;43.220;27.878;2023-06-14T01:50:36;5.50;;;4.50;;
75506;SDS011;64086;43.220;27.878;2023-06-14T01:53:02;6.15;;;4.80;;
75506;SDS011;64086;43.220;27.878;2023-06-14T01:55:27;6.57;;;4.97;;
75506;SDS011;64086;43.220;27.878;2023-06-14T01:57:53;5.25;;;4.72;;
75506;SDS011;64086;43.220;27.878;2023-06-14T02:00:19;6.75;;;5.25;;
75506;SDS011;64086;43.220;27.878;2023-06-14T02:02:45;6.65;;;5.20;;
75506;SDS011;64086;43.220;27.878;2023-06-14T02:05:14;6.15;;;5.55;;
75506;SDS011;64086;43.220;27.878;2023-06-14T02:07:44;5.65;;;5.10;;
75506;SDS011;64086;43.220;27.878;2023-06-14T02:10:10;7.28;;;5.10;;
75506;SDS011;64086;43.220;27.878;2023-06-14T02:12:36;6.55;;;5.53;;
75506;SDS011;64086;43.220;27.878;2023-06-14T02:15:01;7.13;;;4.97;;
75506;SDS011;64086;43.220;27.878;2023-06-14T02:17:26;5.93;;;5.20;;
75506;SDS011;64086;43.220;27.878;2023-06-14T02:19:52;6.35;;;5.72;;
75506;SDS011;64086;43.220;27.878;2023-06-14T02:22:18;6.05;;;5.32;;
75506;SDS011;64086;43.220;27.878;2023-06-14T02:24:45;6.57;;;5.82;;
75506;SDS011;64086;43.220;27.878;2023-06-14T02:27:10;6.63;;;4.93;;
75506;SDS011;64086;43.220;27.878;2023-06-14T02:29:36;8.07;;;5.60;;
75506;SDS011;64086;43.220;27.878;2023-06-14T02:32:02;8.52;;;5.85;;
75506;SDS011;64086;43.220;27.878;2023-06-14T02:34:28;7.10;;;5.40;;
75506;SDS011;64086;43.220;27.878;2023-06-14T02:36:53;6.10;;;5.50;;
75506;SDS011;64086;43.220;27.878;2023-06-14T02:39:18;5.60;;;4.80;;
75506;SDS011;64086;43.220;27.878;2023-06-14T02:41:46;7.00;;;4.97;;
75506;SDS011;64086;43.220;27.878;2023-06-14T02:44:13;6.43;;;5.50;;
75506;SDS011;64086;43.220;27.878;2023-06-14T02:46:40;5.93;;;5.00;;
75506;SDS011;64086;43.220;27.878;2023-06-14T02:49:06;6.88;;;5.38;;
75506;SDS011;64086;43.220;27.878;2023-06-14T02:51:31;7.28;;;5.15;;
75506;SDS011;64086;43.220;27.878;2023-06-14T02:53:57;5.35;;;4.85;;
75506;SDS011;64086;43.220;27.878;2023-06-14T02:56:22;6.45;;;4.97;;
75506;SDS011;64086;43.220;27.878;2023-06-14T02:58:47;6.15;;;5.55;;
75506;SDS011;64086;43.220;27.878;2023-06-14T03:01:13;6.15;;;5.55;;
75506;SDS011;64086;43.220;27.878;2023-06-14T03:03:39;6.85;;;5.22;;
75506;SDS011;64086;43.220;27.878;2023-06-14T03:06:05;6.45;;;5.30;;
75506;SDS011;64086;43.220;27.878;2023-06-14T03:08:31;6.70;;;5.47;;
75506;SDS011;64086;43.220;27.878;2023-06-14T03:10:58;6.30;;;5.22;;
75506;SDS011;64086;43.220;27.878;2023-06-14T03:13:23;6.88;;;5.53;;
75506;SDS011;64086;43.220;27.878;2023-06-14T03:15:49;8.35;;;5.28;;
75506;SDS011;64086;43.220;27.878;2023-06-14T03:18:17;5.65;;;5.07;;
75506;SDS011;64086;43.220;27.878;2023-06-14T03:20:44;6.10;;;4.97;;
75506;SDS011;64086;43.220;27.878;2023-06-14T03:23:10;5.70;;;5.20;;
75506;SDS011;64086;43.220;27.878;2023-06-14T03:25:36;5.65;;;5.13;;
75506;SDS011;64086;43.220;27.878;2023-06-14T03:28:03;6.00;;;5.07;;
75506;SDS011;64086;43.220;27.878;2023-06-14T03:30:30;6.30;;;5.25;;
75506;SDS011;64086;43.220;27.878;2023-06-14T03:32:56;6.82;;;5.32;;
75506;SDS011;64086;43.220;27.878;2023-06-14T03:35:22;6.03;;;5.53;;
75506;SDS011;64086;43.220;27.878;2023-06-14T03:37:48;5.72;;;5.22;;
75506;SDS011;64086;43.220;27.878;2023-06-14T03:40:14;7.07;;;5.78;;
75506;SDS011;64086;43.220;27.878;2023-06-14T03:42:41;7.53;;;5.78;;
75506;SDS011;64086;43.220;27.878;2023-06-14T03:45:06;8.98;;;6.10;;
75506;SDS011;64086;43.220;27.878;2023-06-14T03:47:34;7.07;;;6.10;;
75506;SDS011;64086;43.220;27.878;2023-06-14T03:50:00;7.05;;;6.03;;
75506;SDS011;64086;43.220;27.878;2023-06-14T03:52:29;6.95;;;5.57;;
75506;SDS011;64086;43.220;27.878;2023-06-14T03:54:55;6.68;;;5.90;;
75506;SDS011;64086;43.220;27.878;2023-06-14T03:57:21;7.25;;;6.30;;
75506;SDS011;64086;43.220;27.878;2023-06-14T03:59:46;6.07;;;5.47;;
75506;SDS011;64086;43.220;27.878;2023-06-14T04:02:12;6.22;;;5.63;;
75506;SDS011;64086;43.220;27.878;2023-06-14T04:04:41;6.78;;;6.07;;
75506;SDS011;64086;43.220;27.878;2023-06-14T04:07:09;7.45;;;6.35;;
75506;SDS011;64086;43.220;27.878;2023-06-14T04:09:36;10.02;;;6.82;;
75506;SDS011;64086;43.220;27.878;2023-06-14T04:12:02;8.75;;;6.18;;
75506;SDS011;64086;43.220;27.878;2023-06-14T04:14:28;7.95;;;7.03;;
75506;SDS011;64086;43.220;27.878;2023-06-14T04:16:54;7.75;;;6.95;;
75506;SDS011;64086;43.220;27.878;2023-06-14T04:19:19;12.48;;;6.95;;
75506;SDS011;64086;43.220;27.878;2023-06-14T04:21:45;7.20;;;6.50;;
75506;SDS011;64086;43.220;27.878;2023-06-14T04:24:10;9.65;;;6.88;;
75506;SDS011;64086;43.220;27.878;2023-06-14T04:26:44;9.32;;;6.22;;
75506;SDS011;64086;43.220;27.878;2023-06-14T04:29:13;7.07;;;6.55;;
75506;SDS011;64086;43.220;27.878;2023-06-14T04:31:42;7.90;;;7.10;;
75506;SDS011;64086;43.220;27.878;2023-06-14T04:34:09;7.32;;;6.65;;
75506;SDS011;64086;43.220;27.878;2023-06-14T04:36:41;8.02;;;7.28;;
75506;SDS011;64086;43.220;27.878;2023-06-14T04:41:39;8.13;;;7.18;;
75506;SDS011;64086;43.220;27.878;2023-06-14T04:44:04;8.80;;;6.88;;
75506;SDS011;64086;43.220;27.878;2023-06-14T04:46:30;7.30;;;6.60;;
75506;SDS011;64086;43.220;27.878;2023-06-14T04:48:57;8.20;;;7.22;;
75506;SDS011;64086;43.220;27.878;2023-06-14T04:51:26;8.93;;;7.63;;
75506;SDS011;64086;43.220;27.878;2023-06-14T04:53:57;8.98;;;7.05;;
75506;SDS011;64086;43.220;27.878;2023-06-14T04:56:24;8.10;;;6.78;;
75506;SDS011;64086;43.220;27.878;2023-06-14T04:58:50;7.50;;;6.78;;
75506;SDS011;64086;43.220;27.878;2023-06-14T05:01:18;7.97;;;7.07;;
75506;SDS011;64086;43.220;27.878;2023-06-14T05:03:43;9.82;;;6.88;;
75506;SDS011;64086;43.220;27.878;2023-06-14T05:06:10;7.95;;;6.93;;
75506;SDS011;64086;43.220;27.878;2023-06-14T05:08:36;11.05;;;7.00;;
75506;SDS011;64086;43.220;27.878;2023-06-14T05:11:02;10.25;;;6.95;;
75506;SDS011;64086;43.220;27.878;2023-06-14T05:13:27;8.80;;;7.18;;
75506;SDS011;64086;43.220;27.878;2023-06-14T05:15:53;7.47;;;6.70;;
75506;SDS011;64086;43.220;27.878;2023-06-14T05:18:18;7.50;;;6.78;;
75506;SDS011;64086;43.220;27.878;2023-06-14T05:20:44;8.57;;;7.55;;
75506;SDS011;64086;43.220;27.878;2023-06-14T05:23:11;8.88;;;7.55;;
75506;SDS011;64086;43.220;27.878;2023-06-14T05:25:40;8.95;;;7.05;;
75506;SDS011;64086;43.220;27.878;2023-06-14T05:28:09;8.20;;;7.40;;
75506;SDS011;64086;43.220;27.878;2023-06-14T05:30:34;8.55;;;7.70;;
75506;SDS011;64086;43.220;27.878;2023-06-14T05:33:00;7.63;;;6.85;;
75506;SDS011;64086;43.220;27.878;2023-06-14T05:35:25;10.68;;;7.28;;
75506;SDS011;64086;43.220;27.878;2023-06-14T05:37:52;8.23;;;7.22;;
75506;SDS011;64086;43.220;27.878;2023-06-14T05:40:18;9.43;;;7.55;;
75506;SDS011;64086;43.220;27.878;2023-06-14T05:42:44;9.50;;;7.45;;
75506;SDS011;64086;43.220;27.878;2023-06-14T05:45:09;8.82;;;7.57;;
75506;SDS011;64086;43.220;27.878;2023-06-14T05:47:35;9.60;;;8.55;;
75506;SDS011;64086;43.220;27.878;2023-06-14T05:50:01;8.90;;;8.15;;
75506;SDS011;64086;43.220;27.878;2023-06-14T05:52:26;9.13;;;8.23;;
75506;SDS011;64086;43.220;27.878;2023-06-14T05:54:53;9.57;;;7.90;;
75506;SDS011;64086;43.220;27.878;2023-06-14T05:57:18;9.93;;;9.10;;
75506;SDS011;64086;43.220;27.878;2023-06-14T05:59:44;9.88;;;8.88;;
75506;SDS011;64086;43.220;27.878;2023-06-14T06:02:10;11.50;;;8.35;;
75506;SDS011;64086;43.220;27.878;2023-06-14T06:04:35;9.10;;;8.25;;
75506;SDS011;64086;43.220;27.878;2023-06-14T06:07:01;10.55;;;7.63;;
75506;SDS011;64086;43.220;27.878;2023-06-14T06:09:26;10.80;;;7.50;;
75506;SDS011;64086;43.220;27.878;2023-06-14T06:11:52;8.82;;;7.93;;
75506;SDS011;64086;43.220;27.878;2023-06-14T06:14:17;9.35;;;8.13;;
75506;SDS011;64086;43.220;27.878;2023-06-14T06:16:43;10.02;;;9.05;;
75506;SDS011;64086;43.220;27.878;2023-06-14T06:19:08;9.27;;;8.43;;
75506;SDS011;64086;43.220;27.878;2023-06-14T06:21:33;9.13;;;8.23;;
75506;SDS011;64086;43.220;27.878;2023-06-14T06:23:59;9.43;;;8.52;;
75506;SDS011;64086;43.220;27.878;2023-06-14T06:26:28;8.95;;;8.13;;
75506;SDS011;64086;43.220;27.878;2023-06-14T06:28:54;9.30;;;8.40;;
75506;SDS011;64086;43.220;27.878;2023-06-14T06:31:20;8.98;;;8.18;;
75506;SDS011;64086;43.220;27.878;2023-06-14T06:33:47;9.55;;;7.80;;
75506;SDS011;64086;43.220;27.878;2023-06-14T06:36:12;7.93;;;7.13;;
75506;SDS011;64086;43.220;27.878;2023-06-14T06:38:38;8.00;;;6.85;;
75506;SDS011;64086;43.220;27.878;2023-06-14T06:41:03;6.88;;;5.53;;
75506;SDS011;64086;43.220;27.878;2023-06-14T06:43:28;6.50;;;5.93;;
75506;SDS011;64086;43.220;27.878;2023-06-14T06:45:54;7.72;;;5.70;;
75506;SDS011;64086;43.220;27.878;2023-06-14T06:48:19;5.95;;;5.28;;
75506;SDS011;64086;43.220;27.878;2023-06-14T06:50:45;5.10;;;4.70;;
75506;SDS011;64086;43.220;27.878;2023-06-14T06:53:10;5.35;;;4.80;;
75506;SDS011;64086;43.220;27.878;2023-06-14T06:55:35;5.13;;;4.53;;
75506;SDS011;64086;43.220;27.878;2023-06-14T06:58:01;4.70;;;4.22;;
75506;SDS011;64086;43.220;27.878;2023-06-14T07:00:29;4.65;;;4.35;;
75506;SDS011;64086;43.220;27.878;2023-06-14T07:02:55;4.93;;;4.53;;
75506;SDS011;64086;43.220;27.878;2023-06-14T07:05:22;6.03;;;5.40;;
75506;SDS011;64086;43.220;27.878;2023-06-14T07:07:48;5.50;;;5.00;;
75506;SDS011;64086;43.220;27.878;2023-06-14T07:10:13;4.80;;;4.50;;
75506;SDS011;64086;43.220;27.878;2023-06-14T07:12:39;5.15;;;4.75;;
75506;SDS011;64086;43.220;27.878;2023-06-14T07:15:08;4.90;;;4.53;;
75506;SDS011;64086;43.220;27.878;2023-06-14T07:17:34;4.63;;;4.32;;
75506;SDS011;64086;43.220;27.878;2023-06-14T07:20:00;4.82;;;4.43;;
75506;SDS011;64086;43.220;27.878;2023-06-14T07:22:30;4.80;;;4.40;;
75506;SDS011;64086;43.220;27.878;2023-06-14T07:24:56;5.30;;;4.90;;
75506;SDS011;64086;43.220;27.878;2023-06-14T07:27:21;5.47;;;4.97;;
75506;SDS011;64086;43.220;27.878;2023-06-14T07:29:46;5.53;;;5.03;;
75506;SDS011;64086;43.220;27.878;2023-06-14T07:32:12;5.38;;;4.32;;
75506;SDS011;64086;43.220;27.878;2023-06-14T07:34:37;4.55;;;4.15;;
75506;SDS011;64086;43.220;27.878;2023-06-14T07:37:03;4.68;;;4.25;;
75506;SDS011;64086;43.220;27.878;2023-06-14T07:39:28;4.72;;;4.20;;
75506;SDS011;64086;43.220;27.878;2023-06-14T07:41:54;4.85;;;4.40;;
75506;SDS011;64086;43.220;27.878;2023-06-14T07:44:19;4.72;;;4.22;;
75506;SDS011;64086;43.220;27.878;2023-06-14T07:46:45;4.45;;;4.05;;
75506;SDS011;64086;43.220;27.878;2023-06-14T07:49:14;4.28;;;3.97;;
75506;SDS011;64086;43.220;27.878;2023-06-14T07:51:39;4.22;;;3.90;;
75506;SDS011;64086;43.220;27.878;2023-06-14T07:54:05;4.60;;;4.15;;
75506;SDS011;64086;43.220;27.878;2023-06-14T07:56:32;4.25;;;3.90;;
75506;SDS011;64086;43.220;27.878;2023-06-14T07:58:58;4.70;;;4.30;;
75506;SDS011;64086;43.220;27.878;2023-06-14T08:01:23;4.22;;;3.75;;
75506;SDS011;64086;43.220;27.878;2023-06-14T08:03:50;4.20;;;3.90;;
75506;SDS011;64086;43.220;27.878;2023-06-14T08:06:15;5.00;;;3.72;;
75506;SDS011;64086;43.220;27.878;2023-06-14T08:08:41;4.10;;;3.80;;
75506;SDS011;64086;43.220;27.878;2023-06-14T08:11:07;4.10;;;3.70;;
75506;SDS011;64086;43.220;27.878;2023-06-14T08:13:32;4.50;;;4.10;;
75506;SDS011;64086;43.220;27.878;2023-06-14T08:15:58;4.70;;;4.20;;
75506;SDS011;64086;43.220;27.878;2023-06-14T08:18:23;4.18;;;3.88;;
75506;SDS011;64086;43.220;27.878;2023-06-14T08:20:49;4.68;;;4.28;;
75506;SDS011;64086;43.220;27.878;2023-06-14T08:23:15;6.97;;;4.35;;
75506;SDS011;64086;43.220;27.878;2023-06-14T08:25:44;4.75;;;4.45;;
75506;SDS011;64086;43.220;27.878;2023-06-14T08:28:10;4.53;;;4.15;;
75506;SDS011;64086;43.220;27.878;2023-06-14T08:30:35;4.72;;;4.32;;
75506;SDS011;64086;43.220;27.878;2023-06-14T08:33:01;5.13;;;4.60;;
75506;SDS011;64086;43.220;27.878;2023-06-14T08:35:26;4.65;;;4.25;;
75506;SDS011;64086;43.220;27.878;2023-06-14T08:37:52;4.90;;;4.50;;
75506;SDS011;64086;43.220;27.878;2023-06-14T08:40:22;4.57;;;4.18;;
75506;SDS011;64086;43.220;27.878;2023-06-14T08:42:52;5.40;;;4.90;;
75506;SDS011;64086;43.220;27.878;2023-06-14T08:45:19;4.53;;;4.13;;
75506;SDS011;64086;43.220;27.878;2023-06-14T08:47:46;4.90;;;4.40;;
75506;SDS011;64086;43.220;27.878;2023-06-14T08:50:20;4.90;;;4.50;;
75506;SDS011;64086;43.220;27.878;2023-06-14T08:52:47;4.60;;;4.20;;
75506;SDS011;64086;43.220;27.878;2023-06-14T08:55:17;4.88;;;4.47;;
75506;SDS011;64086;43.220;27.878;2023-06-14T08:57:45;5.97;;;4.88;;
75506;SDS011;64086;43.220;27.878;2023-06-14T09:00:11;5.03;;;4.63;;
75506;SDS011;64086;43.220;27.878;2023-06-14T09:02:38;5.38;;;4.88;;
75506;SDS011;64086;43.220;27.878;2023-06-14T09:05:11;5.43;;;4.93;;
75506;SDS011;64086;43.220;27.878;2023-06-14T09:07:43;5.18;;;4.68;;
75506;SDS011;64086;43.220;27.878;2023-06-14T09:10:09;4.97;;;4.57;;
75506;SDS011;64086;43.220;27.878;2023-06-14T09:12:38;4.70;;;4.40;;
75506;SDS011;64086;43.220;27.878;2023-06-14T09:15:05;7.20;;;4.68;;
75506;SDS011;64086;43.220;27.878;2023-06-14T09:17:37;4.90;;;4.50;;
75506;SDS011;64086;43.220;27.878;2023-06-14T09:20:04;5.47;;;5.03;;
75506;SDS011;64086;43.220;27.878;2023-06-14T09:22:31;5.22;;;4.82;;
75506;SDS011;64086;43.220;27.878;2023-06-14T09:24:57;5.10;;;4.57;;
75506;SDS011;64086;43.220;27.878;2023-06-14T09:27:25;5.00;;;4.38;;
75506;SDS011;64086;43.220;27.878;2023-06-14T09:29:51;5.00;;;4.60;;
75506;SDS011;64086;43.220;27.878;2023-06-14T09:32:16;4.78;;;4.38;;
75506;SDS011;64086;43.220;27.878;2023-06-14T09:34:42;4.45;;;4.15;;
75506;SDS011;64086;43.220;27.878;2023-06-14T09:37:07;4.50;;;4.20;;
75506;SDS011;64086;43.220;27.878;2023-06-14T09:39:33;4.70;;;4.40;;
75506;SDS011;64086;43.220;27.878;2023-06-14T09:41:58;5.03;;;4.35;;
75506;SDS011;64086;43.220;27.878;2023-06-14T09:44:24;4.97;;;4.55;;
75506;SDS011;64086;43.220;27.878;2023-06-14T09:46:54;4.85;;;4.35;;
75506;SDS011;64086;43.220;27.878;2023-06-14T09:49:21;4.82;;;4.45;;
75506;SDS011;64086;43.220;27.878;2023-06-14T09:51:46;4.75;;;4.35;;
75506;SDS011;64086;43.220;27.878;2023-06-14T09:54:16;5.88;;;5.28;;
75506;SDS011;64086;43.220;27.878;2023-06-14T09:56:44;5.63;;;5.00;;
75506;SDS011;64086;43.220;27.878;2023-06-14T09:59:10;7.03;;;4.90;;
75506;SDS011;64086;43.220;27.878;2023-06-14T10:01:41;5.38;;;4.65;;
75506;SDS011;64086;43.220;27.878;2023-06-14T10:04:07;5.25;;;4.85;;
75506;SDS011;64086;43.220;27.878;2023-06-14T10:06:39;5.70;;;5.10;;
75506;SDS011;64086;43.220;27.878;2023-06-14T10:09:07;5.07;;;4.68;;
75506;SDS011;64086;43.220;27.878;2023-06-14T10:11:33;5.30;;;4.80;;
75506;SDS011;64086;43.220;27.878;2023-06-14T10:14:00;4.30;;;3.90;;
75506;SDS011;64086;43.220;27.878;2023-06-14T10:22:06;3.90;;;3.47;;
75506;SDS011;64086;43.220;27.878;2023-06-14T10:24:38;4.82;;;4.20;;
75506;SDS011;64086;43.220;27.878;2023-06-14T10:27:07;6.80;;;4.60;;
75506;SDS011;64086;43.220;27.878;2023-06-14T10:29:38;5.00;;;4.50;;
75506;SDS011;64086;43.220;27.878;2023-06-14T10:32:26;5.28;;;4.80;;
75506;SDS011;64086;43.220;27.878;2023-06-14T10:35:05;5.05;;;4.65;;
75506;SDS011;64086;43.220;27.878;2023-06-14T10:37:34;4.88;;;4.45;;
75506;SDS011;64086;43.220;27.878;2023-06-14T10:40:00;5.68;;;5.18;;
75506;SDS011;64086;43.220;27.878;2023-06-14T10:42:32;4.88;;;4.47;;
75506;SDS011;64086;43.220;27.878;2023-06-14T10:44:58;5.35;;;4.60;;
75506;SDS011;64086;43.220;27.878;2023-06-14T10:47:30;6.05;;;4.47;;
75506;SDS011;64086;43.220;27.878;2023-06-14T10:50:02;5.10;;;4.47;;
75506;SDS011;64086;43.220;27.878;2023-06-14T10:52:35;5.40;;;4.90;;
75506;SDS011;64086;43.220;27.878;2023-06-14T10:55:07;6.33;;;4.50;;
75506;SDS011;64086;43.220;27.878;2023-06-14T10:57:40;6.05;;;4.82;;
75506;SDS011;64086;43.220;27.878;2023-06-14T11:00:07;7.18;;;4.82;;
75506;SDS011;64086;43.220;27.878;2023-06-14T11:05:23;4.95;;;4.30;;
75506;SDS011;64086;43.220;27.878;2023-06-14T11:10:55;5.93;;;4.70;;
75506;SDS011;64086;43.220;27.878;2023-06-14T11:13:27;5.20;;;4.70;;
75506;SDS011;64086;43.220;27.878;2023-06-14T11:15:53;5.93;;;4.40;;
75506;SDS011;64086;43.220;27.878;2023-06-14T11:18:21;6.35;;;4.88;;
75506;SDS011;64086;43.220;27.878;2023-06-14T11:20:49;4.93;;;4.43;;
75506;SDS011;64086;43.220;27.878;2023-06-14T11:23:15;5.07;;;4.55;;
75506;SDS011;64086;43.220;27.878;2023-06-14T11:25:40;5.22;;;4.63;;
75506;SDS011;64086;43.220;27.878;2023-06-14T11:28:06;5.30;;;4.80;;
75506;SDS011;64086;43.220;27.878;2023-06-14T11:30:32;5.10;;;4.70;;
75506;SDS011;64086;43.220;27.878;2023-06-14T11:32:57;6.28;;;5.10;;
75506;SDS011;64086;43.220;27.878;2023-06-14T11:35:23;5.28;;;4.30;;
75506;SDS011;64086;43.220;27.878;2023-06-14T11:37:56;4.88;;;4.47;;
75506;SDS011;64086;43.220;27.878;2023-06-14T11:40:25;4.93;;;4.53;;
75506;SDS011;64086;43.220;27.878;2023-06-14T11:42:58;5.63;;;5.03;;
75506;SDS011;64086;43.220;27.878;2023-06-14T11:45:26;7.90;;;4.80;;
75506;SDS011;64086;43.220;27.878;2023-06-14T11:47:54;5.32;;;4.72;;
75506;SDS011;64086;43.220;27.878;2023-06-14T11:50:21;5.70;;;5.10;;
75506;SDS011;64086;43.220;27.878;2023-06-14T11:52:56;5.50;;;4.75;;
75506;SDS011;64086;43.220;27.878;2023-06-14T11:55:23;5.90;;;4.90;;
75506;SDS011;64086;43.220;27.878;2023-06-14T11:57:49;7.20;;;5.15;;
75506;SDS011;64086;43.220;27.878;2023-06-14T12:00:15;6.15;;;4.75;;
75506;SDS011;64086;43.220;27.878;2023-06-14T12:02:41;5.35;;;4.95;;
75506;SDS011;64086;43.220;27.878;2023-06-14T12:05:07;5.72;;;5.22;;
75506;SDS011;64086;43.220;27.878;2023-06-14T12:07:35;5.72;;;5.20;;
75506;SDS011;64086;43.220;27.878;2023-06-14T12:12:28;5.72;;;5.15;;
75506;SDS011;64086;43.220;27.878;2023-06-14T12:14:55;5.75;;;5.00;;
75506;SDS011;64086;43.220;27.878;2023-06-14T12:17:21;5.63;;;5.13;;
75506;SDS011;64086;43.220;27.878;2023-06-14T12:19:48;5.75;;;5.00;;
75506;SDS011;64086;43.220;27.878;2023-06-14T12:22:14;6.50;;;5.15;;
75506;SDS011;64086;43.220;27.878;2023-06-14T12:24:45;6.22;;;5.63;;
75506;SDS011;64086;43.220;27.878;2023-06-14T12:27:11;5.78;;;4.95;;
75506;SDS011;64086;43.220;27.878;2023-06-14T12:29:40;5.85;;;4.95;;
75506;SDS011;64086;43.220;27.878;2023-06-14T12:32:08;5.70;;;5.20;;
75506;SDS011;64086;43.220;27.878;2023-06-14T12:34:34;6.70;;;6.10;;
75506;SDS011;64086;43.220;27.878;2023-06-14T12:37:00;7.35;;;6.65;;
75506;SDS011;64086;43.220;27.878;2023-06-14T12:39:26;7.57;;;6.80;;
75506;SDS011;64086;43.220;27.878;2023-06-14T12:41:52;7.68;;;6.93;;
75506;SDS011;64086;43.220;27.878;2023-06-14T12:44:18;7.72;;;7.00;;
75506;SDS011;64086;43.220;27.878;2023-06-14T12:46:44;7.88;;;7.18;;
75506;SDS011;64086;43.220;27.878;2023-06-14T12:49:12;8.95;;;7.53;;
75506;SDS011;64086;43.220;27.878;2023-06-14T12:51:38;9.05;;;7.63;;
75506;SDS011;64086;43.220;27.878;2023-06-14T12:54:05;8.15;;;7.53;;
75506;SDS011;64086;43.220;27.878;2023-06-14T12:56:30;8.98;;;8.18;;
75506;SDS011;64086;43.220;27.878;2023-06-14T12:58:56;8.38;;;7.57;;
75506;SDS011;64086;43.220;27.878;2023-06-14T13:01:22;8.50;;;7.70;;
75506;SDS011;64086;43.220;27.878;2023-06-14T13:03:47;8.27;;;7.47;;
75506;SDS011;64086;43.220;27.878;2023-06-14T13:06:13;8.85;;;7.47;;
75506;SDS011;64086;43.220;27.878;2023-06-14T13:08:38;8.77;;;7.93;;
75506;SDS011;64086;43.220;27.878;2023-06-14T13:11:04;9.25;;;8.40;;
75506;SDS011;64086;43.220;27.878;2023-06-14T13:13:29;9.15;;;8.35;;
75506;SDS011;64086;43.220;27.878;2023-06-14T13:15:55;8.82;;;8.02;;
75506;SDS011;64086;43.220;27.878;2023-06-14T13:18:20;9.82;;;8.00;;
75506;SDS011;64086;43.220;27.878;2023-06-14T13:20:46;10.02;;;9.13;;
75506;SDS011;64086;43.220;27.878;2023-06-14T13:23:12;10.02;;;9.13;;
75506;SDS011;64086;43.220;27.878;2023-06-14T13:25:38;10.10;;;9.20;;
75506;SDS011;64086;43.220;27.878;2023-06-14T13:28:04;9.52;;;8.73;;
75506;SDS011;64086;43.220;27.878;2023-06-14T13:30:30;8.68;;;7.88;;
75506;SDS011;64086;43.220;27.878;2023-06-14T13:32:56;8.23;;;7.43;;
75506;SDS011;64086;43.220;27.878;2023-06-14T13:35:22;9.38;;;8.43;;
75506;SDS011;64086;43.220;27.878;2023-06-14T13:37:47;8.85;;;8.13;;
75506;SDS011;64086;43.220;27.878;2023-06-14T13:40:13;9.73;;;8.77;;
75506;SDS011;64086;43.220;27.878;2023-06-14T13:42:38;8.70;;;7.78;;
75506;SDS011;64086;43.220;27.878;2023-06-14T13:45:05;8.13;;;7.47;;
75506;SDS011;64086;43.220;27.878;2023-06-14T13:47:31;8.38;;;7.68;;
75506;SDS011;64086;43.220;27.878;2023-06-14T13:49:56;8.73;;;7.47;;
75506;SDS011;64086;43.220;27.878;2023-06-14T13:52:22;8.40;;;7.60;;
75506;SDS011;64086;43.220;27.878;2023-06-14T13:54:48;8.30;;;7.53;;
75506;SDS011;64086;43.220;27.878;2023-06-14T13:57:13;9.10;;;8.32;;
75506;SDS011;64086;43.220;27.878;2023-06-14T13:59:40;9.50;;;8.60;;
75506;SDS011;64086;43.220;27.878;2023-06-14T14:02:06;9.50;;;8.65;;
75506;SDS011;64086;43.220;27.878;2023-06-14T14:04:31;10.18;;;9.25;;
75506;SDS011;64086;43.220;27.878;2023-06-14T14:06:58;8.25;;;7.55;;
75506;SDS011;64086;43.220;27.878;2023-06-14T14:09:23;9.63;;;8.73;;
75506;SDS011;64086;43.220;27.878;2023-06-14T14:11:49;8.68;;;7.78;;
75506;SDS011;64086;43.220;27.878;2023-06-14T14:14:14;9.30;;;7.70;;
75506;SDS011;64086;43.220;27.878;2023-06-14T14:16:40;8.40;;;7.60;;
75506;SDS011;64086;43.220;27.878;2023-06-14T14:19:06;9.73;;;8.88;;
75506;SDS011;64086;43.220;27.878;2023-06-14T14:21:32;10.65;;;9.65;;
75506;SDS011;64086;43.220;27.878;2023-06-14T14:23:57;10.13;;;9.18;;
75506;SDS011;64086;43.220;27.878;2023-06-14T14:26:23;9.90;;;9.00;;
75506;SDS011;64086;43.220;27.878;2023-06-14T14:28:50;10.50;;;9.50;;
75506;SDS011;64086;43.220;27.878;2023-06-14T14:31:15;9.70;;;8.90;;
75506;SDS011;64086;43.220;27.878;2023-06-14T14:33:41;9.60;;;8.60;;
75506;SDS011;64086;43.220;27.878;2023-06-14T14:36:07;10.20;;;8.88;;
75506;SDS011;64086;43.220;27.878;2023-06-14T14:38:32;11.60;;;10.52;;
75506;SDS011;64086;43.220;27.878;2023-06-14T14:40:58;9.80;;;8.88;;
75506;SDS011;64086;43.220;27.878;2023-06-14T14:43:23;10.45;;;9.52;;
75506;SDS011;64086;43.220;27.878;2023-06-14T14:45:49;10.13;;;9.23;;
75506;SDS011;64086;43.220;27.878;2023-06-14T14:48:14;10.55;;;9.52;;